sensor_id;sensor_type;location;lat;lon;timestamp;temperature;humidity
66086;DHT22;52868;49.758;9.586;2022-11-18T00:01:12;11.20;80.20
66086;DHT22;52868;49.758;9.586;2022-11-18T00:03:39;11.20;80.20
66086;DHT22;52868;49.758;9.586;2022-11-18T00:06:06;11.20;80.10
66086;DHT22;52868;49.758;9.586;2022-11-18T00:08:32;11.20;80.20
66086;DHT22;52868;49.758;9.586;2022-11-18T00:11:07;11.20;80.10
66086;DHT22;52868;49.758;9.586;2022-11-18T00:13:33;11.20;80.00
66086;DHT22;52868;49.758;9.586;2022-11-18T00:16:17;11.20;80.00
66086;DHT22;52868;49.758;9.586;2022-11-18T00:18:42;11.20;79.90
66086;DHT22;52868;49.758;9.586;2022-11-18T00:21:10;11.20;79.90
66086;DHT22;52868;49.758;9.586;2022-11-18T00:23:37;11.20;80.00
66086;DHT22;52868;49.758;9.586;2022-11-18T00:26:04;11.20;79.90
66086;DHT22;52868;49.758;9.586;2022-11-18T00:28:31;11.20;79.90
66086;DHT22;52868;49.758;9.586;2022-11-18T00:31:01;11.20;79.90
66086;DHT22;52868;49.758;9.586;2022-11-18T00:33:27;11.20;80.00
66086;DHT22;52868;49.758;9.586;2022-11-18T00:35:54;11.20;79.90
66086;DHT22;52868;49.758;9.586;2022-11-18T00:38:19;11.20;79.90
66086;DHT22;52868;49.758;9.586;2022-11-18T00:40:45;11.20;80.00
66086;DHT22;52868;49.758;9.586;2022-11-18T00:43:11;11.20;80.00
66086;DHT22;52868;49.758;9.586;2022-11-18T00:45:36;11.20;79.90
66086;DHT22;52868;49.758;9.586;2022-11-18T00:48:02;11.20;80.00
66086;DHT22;52868;49.758;9.586;2022-11-18T00:50:27;11.20;80.00
66086;DHT22;52868;49.758;9.586;2022-11-18T00:52:53;11.20;79.90
66086;DHT22;52868;49.758;9.586;2022-11-18T00:55:19;11.20;79.90
66086;DHT22;52868;49.758;9.586;2022-11-18T00:57:44;11.20;80.00
66086;DHT22;52868;49.758;9.586;2022-11-18T01:00:10;11.20;79.90
66086;DHT22;52868;49.758;9.586;2022-11-18T01:02:36;11.20;79.90
66086;DHT22;52868;49.758;9.586;2022-11-18T01:05:03;11.20;80.00
66086;DHT22;52868;49.758;9.586;2022-11-18T01:07:28;11.20;80.10
66086;DHT22;52868;49.758;9.586;2022-11-18T01:09:54;11.20;80.10
66086;DHT22;52868;49.758;9.586;2022-11-18T01:12:21;11.20;80.00
66086;DHT22;52868;49.758;9.586;2022-11-18T01:15:06;11.30;80.10
66086;DHT22;52868;49.758;9.586;2022-11-18T01:17:32;11.20;80.00
66086;DHT22;52868;49.758;9.586;2022-11-18T01:19:58;11.20;79.90
66086;DHT22;52868;49.758;9.586;2022-11-18T01:22:24;11.20;79.90
66086;DHT22;52868;49.758;9.586;2022-11-18T01:24:49;11.20;79.90
66086;DHT22;52868;49.758;9.586;2022-11-18T01:27:15;11.20;79.90
66086;DHT22;52868;49.758;9.586;2022-11-18T01:29:41;11.20;80.00
66086;DHT22;52868;49.758;9.586;2022-11-18T01:32:06;11.20;80.00
66086;DHT22;52868;49.758;9.586;2022-11-18T01:34:32;11.20;80.00
66086;DHT22;52868;49.758;9.586;2022-11-18T01:36:58;11.20;79.90
66086;DHT22;52868;49.758;9.586;2022-11-18T01:39:24;11.20;79.90
66086;DHT22;52868;49.758;9.586;2022-11-18T01:41:49;11.20;80.00
66086;DHT22;52868;49.758;9.586;2022-11-18T01:47:18;11.10;80.10
66086;DHT22;52868;49.758;9.586;2022-11-18T01:49:44;11.20;80.10
66086;DHT22;52868;49.758;9.586;2022-11-18T01:52:10;11.20;80.10
66086;DHT22;52868;49.758;9.586;2022-11-18T01:54:38;11.10;80.20
66086;DHT22;52868;49.758;9.586;2022-11-18T01:57:13;11.10;80.10
66086;DHT22;52868;49.758;9.586;2022-11-18T01:59:43;11.10;80.20
66086;DHT22;52868;49.758;9.586;2022-11-18T02:02:12;11.10;80.20
66086;DHT22;52868;49.758;9.586;2022-11-18T02:04:41;11.00;80.30
66086;DHT22;52868;49.758;9.586;2022-11-18T02:07:08;11.00;80.30
66086;DHT22;52868;49.758;9.586;2022-11-18T02:09:34;11.00;80.40
66086;DHT22;52868;49.758;9.586;2022-11-18T02:12:00;11.10;80.30
66086;DHT22;52868;49.758;9.586;2022-11-18T02:14:32;11.10;80.20
66086;DHT22;52868;49.758;9.586;2022-11-18T02:17:16;11.00;80.30
66086;DHT22;52868;49.758;9.586;2022-11-18T02:20:17;11.00;80.30
66086;DHT22;52868;49.758;9.586;2022-11-18T02:23:35;11.10;80.10
66086;DHT22;52868;49.758;9.586;2022-11-18T02:29:13;11.00;80.20
66086;DHT22;52868;49.758;9.586;2022-11-18T02:35:06;11.10;80.20
66086;DHT22;52868;49.758;9.586;2022-11-18T02:37:16;11.00;80.10
66086;DHT22;52868;49.758;9.586;2022-11-18T02:39:53;11.10;80.10
66086;DHT22;52868;49.758;9.586;2022-11-18T02:42:22;11.10;80.10
66086;DHT22;52868;49.758;9.586;2022-11-18T02:44:53;11.10;80.10
66086;DHT22;52868;49.758;9.586;2022-11-18T02:47:22;11.10;80.20
66086;DHT22;52868;49.758;9.586;2022-11-18T02:49:56;11.10;80.20
66086;DHT22;52868;49.758;9.586;2022-11-18T02:52:23;11.10;80.30
66086;DHT22;52868;49.758;9.586;2022-11-18T02:54:51;11.10;80.30
66086;DHT22;52868;49.758;9.586;2022-11-18T02:57:19;11.10;80.30
66086;DHT22;52868;49.758;9.586;2022-11-18T02:59:45;11.10;80.30
66086;DHT22;52868;49.758;9.586;2022-11-18T03:02:16;11.10;80.20
66086;DHT22;52868;49.758;9.586;2022-11-18T03:04:44;11.20;80.10
66086;DHT22;52868;49.758;9.586;2022-11-18T03:07:33;11.20;80.10
66086;DHT22;52868;49.758;9.586;2022-11-18T03:10:00;11.20;80.10
66086;DHT22;52868;49.758;9.586;2022-11-18T03:15:28;11.20;80.20
66086;DHT22;52868;49.758;9.586;2022-11-18T03:18:19;11.10;80.30
66086;DHT22;52868;49.758;9.586;2022-11-18T03:20:51;11.20;80.30
66086;DHT22;52868;49.758;9.586;2022-11-18T03:26:11;11.20;80.20
66086;DHT22;52868;49.758;9.586;2022-11-18T03:28:52;11.20;80.10
66086;DHT22;52868;49.758;9.586;2022-11-18T03:31:37;11.20;80.20
66086;DHT22;52868;49.758;9.586;2022-11-18T03:34:12;11.20;80.20
66086;DHT22;52868;49.758;9.586;2022-11-18T03:36:42;11.20;80.20
66086;DHT22;52868;49.758;9.586;2022-11-18T03:39:10;11.10;80.30
66086;DHT22;52868;49.758;9.586;2022-11-18T03:41:45;11.10;80.30
66086;DHT22;52868;49.758;9.586;2022-11-18T03:44:17;11.10;80.20
66086;DHT22;52868;49.758;9.586;2022-11-18T03:46:49;11.10;80.10
66086;DHT22;52868;49.758;9.586;2022-11-18T03:49:28;11.10;80.20
66086;DHT22;52868;49.758;9.586;2022-11-18T03:51:59;11.10;80.20
66086;DHT22;52868;49.758;9.586;2022-11-18T03:54:29;11.10;80.30
66086;DHT22;52868;49.758;9.586;2022-11-18T03:56:59;11.10;80.30
66086;DHT22;52868;49.758;9.586;2022-11-18T03:59:39;11.10;80.20
66086;DHT22;52868;49.758;9.586;2022-11-18T04:02:20;11.10;80.20
66086;DHT22;52868;49.758;9.586;2022-11-18T04:04:49;11.10;80.30
66086;DHT22;52868;49.758;9.586;2022-11-18T04:07:31;11.20;80.20
66086;DHT22;52868;49.758;9.586;2022-11-18T04:10:10;11.20;80.20
66086;DHT22;52868;49.758;9.586;2022-11-18T04:12:47;11.20;80.30
66086;DHT22;52868;49.758;9.586;2022-11-18T04:15:14;11.10;80.30
66086;DHT22;52868;49.758;9.586;2022-11-18T04:17:41;11.10;80.30
66086;DHT22;52868;49.758;9.586;2022-11-18T04:20:16;11.10;80.30
66086;DHT22;52868;49.758;9.586;2022-11-18T04:22:42;11.10;80.40
66086;DHT22;52868;49.758;9.586;2022-11-18T04:25:08;11.10;80.40
66086;DHT22;52868;49.758;9.586;2022-11-18T04:27:33;11.10;80.50
66086;DHT22;52868;49.758;9.586;2022-11-18T04:29:59;11.10;80.60
66086;DHT22;52868;49.758;9.586;2022-11-18T04:32:24;11.10;80.60
66086;DHT22;52868;49.758;9.586;2022-11-18T04:34:50;11.10;80.60
66086;DHT22;52868;49.758;9.586;2022-11-18T04:37:15;11.10;80.50
66086;DHT22;52868;49.758;9.586;2022-11-18T04:39:41;11.20;80.40
66086;DHT22;52868;49.758;9.586;2022-11-18T04:42:07;11.20;80.30
66086;DHT22;52868;49.758;9.586;2022-11-18T04:44:33;11.20;80.30
66086;DHT22;52868;49.758;9.586;2022-11-18T04:47:01;11.20;80.30
66086;DHT22;52868;49.758;9.586;2022-11-18T04:49:28;11.10;80.30
66086;DHT22;52868;49.758;9.586;2022-11-18T04:51:54;11.20;80.30
66086;DHT22;52868;49.758;9.586;2022-11-18T04:54:24;11.20;80.30
66086;DHT22;52868;49.758;9.586;2022-11-18T04:56:50;11.10;80.40
66086;DHT22;52868;49.758;9.586;2022-11-18T04:59:18;11.10;80.40
66086;DHT22;52868;49.758;9.586;2022-11-18T05:01:44;11.10;80.40
66086;DHT22;52868;49.758;9.586;2022-11-18T05:04:19;11.10;80.40
66086;DHT22;52868;49.758;9.586;2022-11-18T05:06:44;11.10;80.50
66086;DHT22;52868;49.758;9.586;2022-11-18T05:09:10;11.10;80.50
66086;DHT22;52868;49.758;9.586;2022-11-18T05:11:36;11.10;80.50
66086;DHT22;52868;49.758;9.586;2022-11-18T05:14:20;11.10;80.50
66086;DHT22;52868;49.758;9.586;2022-11-18T05:16:46;11.00;80.50
66086;DHT22;52868;49.758;9.586;2022-11-18T05:19:12;11.10;80.50
66086;DHT22;52868;49.758;9.586;2022-11-18T05:21:37;11.20;80.40
66086;DHT22;52868;49.758;9.586;2022-11-18T05:24:03;11.20;80.30
66086;DHT22;52868;49.758;9.586;2022-11-18T05:26:29;11.20;80.30
66086;DHT22;52868;49.758;9.586;2022-11-18T05:28:55;11.20;80.30
66086;DHT22;52868;49.758;9.586;2022-11-18T05:31:21;11.20;80.30
66086;DHT22;52868;49.758;9.586;2022-11-18T05:33:47;11.20;80.40
66086;DHT22;52868;49.758;9.586;2022-11-18T05:36:15;11.20;80.40
66086;DHT22;52868;49.758;9.586;2022-11-18T05:38:41;11.20;80.30
66086;DHT22;52868;49.758;9.586;2022-11-18T05:41:07;11.20;80.20
66086;DHT22;52868;49.758;9.586;2022-11-18T05:43:34;11.20;80.30
66086;DHT22;52868;49.758;9.586;2022-11-18T05:46:00;11.20;80.30
66086;DHT22;52868;49.758;9.586;2022-11-18T05:48:26;11.20;80.40
66086;DHT22;52868;49.758;9.586;2022-11-18T05:50:53;11.20;80.50
66086;DHT22;52868;49.758;9.586;2022-11-18T05:53:21;11.20;80.40
66086;DHT22;52868;49.758;9.586;2022-11-18T05:58:39;11.20;80.40
66086;DHT22;52868;49.758;9.586;2022-11-18T06:01:06;11.20;80.40
66086;DHT22;52868;49.758;9.586;2022-11-18T06:03:37;11.20;80.30
66086;DHT22;52868;49.758;9.586;2022-11-18T06:06:05;11.20;80.20
66086;DHT22;52868;49.758;9.586;2022-11-18T06:08:37;11.20;80.30
66086;DHT22;52868;49.758;9.586;2022-11-18T06:11:06;11.20;80.20
66086;DHT22;52868;49.758;9.586;2022-11-18T06:13:41;11.20;80.20
66086;DHT22;52868;49.758;9.586;2022-11-18T06:16:08;11.20;80.20
66086;DHT22;52868;49.758;9.586;2022-11-18T06:18:36;11.20;80.10
66086;DHT22;52868;49.758;9.586;2022-11-18T06:21:04;11.20;80.10
66086;DHT22;52868;49.758;9.586;2022-11-18T06:23:33;11.20;80.20
66086;DHT22;52868;49.758;9.586;2022-11-18T06:25:59;11.20;80.20
66086;DHT22;52868;49.758;9.586;2022-11-18T06:28:25;11.20;80.20
66086;DHT22;52868;49.758;9.586;2022-11-18T06:30:52;11.20;80.10
66086;DHT22;52868;49.758;9.586;2022-11-18T06:33:17;11.20;80.10
66086;DHT22;52868;49.758;9.586;2022-11-18T06:35:43;11.20;80.10
66086;DHT22;52868;49.758;9.586;2022-11-18T06:38:09;11.20;80.10
66086;DHT22;52868;49.758;9.586;2022-11-18T06:40:35;11.20;80.10
66086;DHT22;52868;49.758;9.586;2022-11-18T06:43:08;11.20;80.10
66086;DHT22;52868;49.758;9.586;2022-11-18T06:45:57;11.20;80.10
66086;DHT22;52868;49.758;9.586;2022-11-18T06:48:42;11.20;80.10
66086;DHT22;52868;49.758;9.586;2022-11-18T06:51:07;11.20;80.20
66086;DHT22;52868;49.758;9.586;2022-11-18T06:53:34;11.20;80.20
66086;DHT22;52868;49.758;9.586;2022-11-18T06:56:03;11.20;80.10
66086;DHT22;52868;49.758;9.586;2022-11-18T06:58:29;11.20;80.20
66086;DHT22;52868;49.758;9.586;2022-11-18T07:00:55;11.20;80.20
66086;DHT22;52868;49.758;9.586;2022-11-18T07:03:21;11.20;80.20
66086;DHT22;52868;49.758;9.586;2022-11-18T07:05:46;11.20;80.20
66086;DHT22;52868;49.758;9.586;2022-11-18T07:08:12;11.20;80.20
66086;DHT22;52868;49.758;9.586;2022-11-18T07:10:37;11.20;80.30
66086;DHT22;52868;49.758;9.586;2022-11-18T07:13:03;11.20;80.40
66086;DHT22;52868;49.758;9.586;2022-11-18T07:15:29;11.20;80.20
66086;DHT22;52868;49.758;9.586;2022-11-18T07:17:54;11.20;80.10
66086;DHT22;52868;49.758;9.586;2022-11-18T07:20:20;11.30;80.10
66086;DHT22;52868;49.758;9.586;2022-11-18T07:22:45;11.20;80.10
66086;DHT22;52868;49.758;9.586;2022-11-18T07:25:11;11.20;80.10
66086;DHT22;52868;49.758;9.586;2022-11-18T07:27:37;11.20;80.10
66086;DHT22;52868;49.758;9.586;2022-11-18T07:30:02;11.20;80.10
66086;DHT22;52868;49.758;9.586;2022-11-18T07:32:31;11.20;80.10
66086;DHT22;52868;49.758;9.586;2022-11-18T07:34:57;11.20;80.20
66086;DHT22;52868;49.758;9.586;2022-11-18T07:37:23;11.20;80.20
66086;DHT22;52868;49.758;9.586;2022-11-18T07:39:48;11.20;80.30
66086;DHT22;52868;49.758;9.586;2022-11-18T07:42:14;11.20;80.20
66086;DHT22;52868;49.758;9.586;2022-11-18T07:44:40;11.20;80.10
66086;DHT22;52868;49.758;9.586;2022-11-18T07:47:05;11.20;80.20
66086;DHT22;52868;49.758;9.586;2022-11-18T07:49:31;11.30;80.20
66086;DHT22;52868;49.758;9.586;2022-11-18T07:51:56;11.20;80.20
66086;DHT22;52868;49.758;9.586;2022-11-18T07:54:22;11.30;80.20
66086;DHT22;52868;49.758;9.586;2022-11-18T07:56:47;11.30;80.20
66086;DHT22;52868;49.758;9.586;2022-11-18T07:59:13;11.30;80.10
66086;DHT22;52868;49.758;9.586;2022-11-18T08:01:39;11.20;80.10
66086;DHT22;52868;49.758;9.586;2022-11-18T08:04:06;11.20;80.10
66086;DHT22;52868;49.758;9.586;2022-11-18T08:06:33;11.20;80.10
66086;DHT22;52868;49.758;9.586;2022-11-18T08:08:59;11.30;80.20
66086;DHT22;52868;49.758;9.586;2022-11-18T08:11:25;11.30;80.20
66086;DHT22;52868;49.758;9.586;2022-11-18T08:13:51;11.30;80.10
66086;DHT22;52868;49.758;9.586;2022-11-18T08:16:19;11.20;80.20
66086;DHT22;52868;49.758;9.586;2022-11-18T08:18:45;11.30;80.30
66086;DHT22;52868;49.758;9.586;2022-11-18T08:21:12;11.30;80.20
66086;DHT22;52868;49.758;9.586;2022-11-18T08:23:38;11.30;80.10
66086;DHT22;52868;49.758;9.586;2022-11-18T08:26:07;11.30;80.20
66086;DHT22;52868;49.758;9.586;2022-11-18T08:28:34;11.30;80.00
66086;DHT22;52868;49.758;9.586;2022-11-18T08:30:59;11.30;80.10
66086;DHT22;52868;49.758;9.586;2022-11-18T08:33:25;11.30;80.00
66086;DHT22;52868;49.758;9.586;2022-11-18T08:35:51;11.30;80.00
66086;DHT22;52868;49.758;9.586;2022-11-18T08:38:17;11.30;80.00
66086;DHT22;52868;49.758;9.586;2022-11-18T08:40:44;11.30;80.10
66086;DHT22;52868;49.758;9.586;2022-11-18T08:43:12;11.30;80.10
66086;DHT22;52868;49.758;9.586;2022-11-18T08:45:38;11.30;79.90
66086;DHT22;52868;49.758;9.586;2022-11-18T08:48:04;11.40;80.00
66086;DHT22;52868;49.758;9.586;2022-11-18T08:50:30;11.40;79.90
66086;DHT22;52868;49.758;9.586;2022-11-18T08:52:56;11.40;79.90
66086;DHT22;52868;49.758;9.586;2022-11-18T08:55:21;11.40;79.90
66086;DHT22;52868;49.758;9.586;2022-11-18T08:57:47;11.40;80.00
66086;DHT22;52868;49.758;9.586;2022-11-18T09:00:14;11.40;79.90
66086;DHT22;52868;49.758;9.586;2022-11-18T09:02:40;11.40;80.00
66086;DHT22;52868;49.758;9.586;2022-11-18T09:05:08;11.40;79.90
66086;DHT22;52868;49.758;9.586;2022-11-18T09:07:34;11.40;80.00
66086;DHT22;52868;49.758;9.586;2022-11-18T09:09:59;11.40;80.10
66086;DHT22;52868;49.758;9.586;2022-11-18T09:12:25;11.40;80.00
66086;DHT22;52868;49.758;9.586;2022-11-18T09:14:50;11.40;79.90
66086;DHT22;52868;49.758;9.586;2022-11-18T09:17:16;11.40;79.90
66086;DHT22;52868;49.758;9.586;2022-11-18T09:19:42;11.30;80.00
66086;DHT22;52868;49.758;9.586;2022-11-18T09:22:08;11.40;80.00
66086;DHT22;52868;49.758;9.586;2022-11-18T09:24:34;11.40;80.00
66086;DHT22;52868;49.758;9.586;2022-11-18T09:27:04;11.40;80.10
66086;DHT22;52868;49.758;9.586;2022-11-18T09:29:31;11.30;79.90
66086;DHT22;52868;49.758;9.586;2022-11-18T09:32:01;11.30;80.00
66086;DHT22;52868;49.758;9.586;2022-11-18T09:34:27;11.40;79.90
66086;DHT22;52868;49.758;9.586;2022-11-18T09:36:53;11.40;79.80
66086;DHT22;52868;49.758;9.586;2022-11-18T09:39:22;11.30;79.80
66086;DHT22;52868;49.758;9.586;2022-11-18T09:41:59;11.40;79.90
66086;DHT22;52868;49.758;9.586;2022-11-18T09:47:19;11.30;79.80
66086;DHT22;52868;49.758;9.586;2022-11-18T09:49:48;11.30;79.80
66086;DHT22;52868;49.758;9.586;2022-11-18T09:52:23;11.30;79.80
66086;DHT22;52868;49.758;9.586;2022-11-18T09:54:51;11.40;79.80
66086;DHT22;52868;49.758;9.586;2022-11-18T09:57:34;11.40;79.80
66086;DHT22;52868;49.758;9.586;2022-11-18T10:00:09;11.30;79.70
66086;DHT22;52868;49.758;9.586;2022-11-18T10:05:22;11.30;79.70
66086;DHT22;52868;49.758;9.586;2022-11-18T10:16:53;11.30;79.60
66086;DHT22;52868;49.758;9.586;2022-11-18T10:24:43;11.30;79.40
66086;DHT22;52868;49.758;9.586;2022-11-18T10:27:14;11.30;79.50
66086;DHT22;52868;49.758;9.586;2022-11-18T10:29:41;11.30;79.40
66086;DHT22;52868;49.758;9.586;2022-11-18T10:32:12;11.40;79.40
66086;DHT22;52868;49.758;9.586;2022-11-18T10:34:48;11.40;79.30
66086;DHT22;52868;49.758;9.586;2022-11-18T10:39:57;11.30;79.10
66086;DHT22;52868;49.758;9.586;2022-11-18T10:45:24;11.30;79.20
66086;DHT22;52868;49.758;9.586;2022-11-18T10:50:31;11.30;79.20
66086;DHT22;52868;49.758;9.586;2022-11-18T10:52:57;11.30;79.10
66086;DHT22;52868;49.758;9.586;2022-11-18T10:55:24;11.30;79.10
66086;DHT22;52868;49.758;9.586;2022-11-18T10:57:54;11.30;79.10
66086;DHT22;52868;49.758;9.586;2022-11-18T11:00:44;11.30;79.10
66086;DHT22;52868;49.758;9.586;2022-11-18T11:03:32;11.30;79.20
66086;DHT22;52868;49.758;9.586;2022-11-18T11:08:53;11.40;79.20
66086;DHT22;52868;49.758;9.586;2022-11-18T11:11:26;11.40;79.20
66086;DHT22;52868;49.758;9.586;2022-11-18T11:17:01;11.40;79.10
66086;DHT22;52868;49.758;9.586;2022-11-18T11:22:17;11.40;79.00
66086;DHT22;52868;49.758;9.586;2022-11-18T11:24:43;11.30;79.10
66086;DHT22;52868;49.758;9.586;2022-11-18T11:27:38;11.40;79.10
66086;DHT22;52868;49.758;9.586;2022-11-18T11:30:19;11.30;79.10
66086;DHT22;52868;49.758;9.586;2022-11-18T11:36:00;11.30;79.10
66086;DHT22;52868;49.758;9.586;2022-11-18T11:38:17;11.40;79.20
66086;DHT22;52868;49.758;9.586;2022-11-18T11:49:20;11.40;79.10
66086;DHT22;52868;49.758;9.586;2022-11-18T11:52:03;11.40;79.10
66086;DHT22;52868;49.758;9.586;2022-11-18T12:00:04;11.50;79.20
66086;DHT22;52868;49.758;9.586;2022-11-18T12:05:40;11.40;79.20
66086;DHT22;52868;49.758;9.586;2022-11-18T12:08:20;11.40;79.20
66086;DHT22;52868;49.758;9.586;2022-11-18T12:10:52;11.40;79.20
66086;DHT22;52868;49.758;9.586;2022-11-18T12:18:38;11.40;79.20
66086;DHT22;52868;49.758;9.586;2022-11-18T12:21:05;11.50;79.20
66086;DHT22;52868;49.758;9.586;2022-11-18T12:23:32;11.50;79.20
66086;DHT22;52868;49.758;9.586;2022-11-18T12:26:05;11.50;79.20
66086;DHT22;52868;49.758;9.586;2022-11-18T12:28:40;11.50;79.40
66086;DHT22;52868;49.758;9.586;2022-11-18T12:33:57;11.50;79.30
66086;DHT22;52868;49.758;9.586;2022-11-18T12:36:37;11.50;79.30
66086;DHT22;52868;49.758;9.586;2022-11-18T12:42:07;11.50;79.40
66086;DHT22;52868;49.758;9.586;2022-11-18T12:48:02;11.50;79.20
66086;DHT22;52868;49.758;9.586;2022-11-18T12:50:49;11.50;79.20
66086;DHT22;52868;49.758;9.586;2022-11-18T12:53:39;11.50;79.20
66086;DHT22;52868;49.758;9.586;2022-11-18T12:58:46;11.50;79.20
66086;DHT22;52868;49.758;9.586;2022-11-18T13:01:15;11.60;79.10
66086;DHT22;52868;49.758;9.586;2022-11-18T13:03:44;11.60;79.10
66086;DHT22;52868;49.758;9.586;2022-11-18T13:08:51;11.60;79.20
66086;DHT22;52868;49.758;9.586;2022-11-18T13:11:17;11.60;79.20
66086;DHT22;52868;49.758;9.586;2022-11-18T13:14:04;11.60;79.20
66086;DHT22;52868;49.758;9.586;2022-11-18T13:16:49;11.60;79.10
66086;DHT22;52868;49.758;9.586;2022-11-18T13:19:33;11.60;79.20
66086;DHT22;52868;49.758;9.586;2022-11-18T13:22:00;11.60;79.10
66086;DHT22;52868;49.758;9.586;2022-11-18T13:24:50;11.70;79.20
66086;DHT22;52868;49.758;9.586;2022-11-18T13:27:51;11.60;79.20
66086;DHT22;52868;49.758;9.586;2022-11-18T13:30:23;11.70;79.10
66086;DHT22;52868;49.758;9.586;2022-11-18T13:32:49;11.70;79.10
66086;DHT22;52868;49.758;9.586;2022-11-18T13:35:20;11.60;79.10
66086;DHT22;52868;49.758;9.586;2022-11-18T13:37:53;11.60;79.10
66086;DHT22;52868;49.758;9.586;2022-11-18T13:40:28;11.60;79.10
66086;DHT22;52868;49.758;9.586;2022-11-18T13:42:54;11.60;79.10
66086;DHT22;52868;49.758;9.586;2022-11-18T13:45:26;11.60;79.10
66086;DHT22;52868;49.758;9.586;2022-11-18T13:48:08;11.60;79.10
66086;DHT22;52868;49.758;9.586;2022-11-18T13:50:35;11.60;79.00
66086;DHT22;52868;49.758;9.586;2022-11-18T13:56:07;11.60;79.00
66086;DHT22;52868;49.758;9.586;2022-11-18T13:58:59;11.60;79.00
66086;DHT22;52868;49.758;9.586;2022-11-18T14:01:31;11.60;79.00
66086;DHT22;52868;49.758;9.586;2022-11-18T14:06:37;11.70;79.00
66086;DHT22;52868;49.758;9.586;2022-11-18T14:11:43;11.70;79.00
66086;DHT22;52868;49.758;9.586;2022-11-18T14:14:10;11.70;79.00
66086;DHT22;52868;49.758;9.586;2022-11-18T14:16:37;11.70;78.90
66086;DHT22;52868;49.758;9.586;2022-11-18T14:19:25;11.70;78.90
66086;DHT22;52868;49.758;9.586;2022-11-18T14:21:52;11.70;79.00
66086;DHT22;52868;49.758;9.586;2022-11-18T14:24:25;11.70;78.80
66086;DHT22;52868;49.758;9.586;2022-11-18T14:26:51;11.70;78.90
66086;DHT22;52868;49.758;9.586;2022-11-18T14:29:18;11.70;78.90
66086;DHT22;52868;49.758;9.586;2022-11-18T14:32:12;11.70;78.90
66086;DHT22;52868;49.758;9.586;2022-11-18T14:34:39;11.70;78.80
66086;DHT22;52868;49.758;9.586;2022-11-18T14:37:12;11.70;78.90
66086;DHT22;52868;49.758;9.586;2022-11-18T14:39:38;11.70;78.90
66086;DHT22;52868;49.758;9.586;2022-11-18T14:42:05;11.70;78.90
66086;DHT22;52868;49.758;9.586;2022-11-18T14:44:34;11.70;78.90
66086;DHT22;52868;49.758;9.586;2022-11-18T14:47:24;11.70;78.80
66086;DHT22;52868;49.758;9.586;2022-11-18T14:49:51;11.70;78.80
66086;DHT22;52868;49.758;9.586;2022-11-18T14:52:17;11.70;78.70
66086;DHT22;52868;49.758;9.586;2022-11-18T14:54:42;11.70;78.60
66086;DHT22;52868;49.758;9.586;2022-11-18T14:57:15;11.70;78.60
66086;DHT22;52868;49.758;9.586;2022-11-18T14:59:41;11.70;78.50
66086;DHT22;52868;49.758;9.586;2022-11-18T15:02:15;11.70;78.60
66086;DHT22;52868;49.758;9.586;2022-11-18T15:04:41;11.60;78.50
66086;DHT22;52868;49.758;9.586;2022-11-18T15:07:11;11.70;78.50
66086;DHT22;52868;49.758;9.586;2022-11-18T15:09:38;11.60;78.30
66086;DHT22;52868;49.758;9.586;2022-11-18T15:12:04;11.60;78.40
66086;DHT22;52868;49.758;9.586;2022-11-18T15:14:30;11.70;78.50
66086;DHT22;52868;49.758;9.586;2022-11-18T15:16:56;11.60;78.50
66086;DHT22;52868;49.758;9.586;2022-11-18T15:19:22;11.60;78.50
66086;DHT22;52868;49.758;9.586;2022-11-18T15:21:47;11.60;78.40
66086;DHT22;52868;49.758;9.586;2022-11-18T15:24:13;11.60;78.50
66086;DHT22;52868;49.758;9.586;2022-11-18T15:26:41;11.60;78.50
66086;DHT22;52868;49.758;9.586;2022-11-18T15:29:16;11.60;78.50
66086;DHT22;52868;49.758;9.586;2022-11-18T15:31:42;11.60;78.50
66086;DHT22;52868;49.758;9.586;2022-11-18T15:34:08;11.60;78.50
66086;DHT22;52868;49.758;9.586;2022-11-18T15:36:34;11.60;78.60
66086;DHT22;52868;49.758;9.586;2022-11-18T15:38:59;11.60;78.50
66086;DHT22;52868;49.758;9.586;2022-11-18T15:41:27;11.60;78.60
66086;DHT22;52868;49.758;9.586;2022-11-18T15:43:55;11.60;78.50
66086;DHT22;52868;49.758;9.586;2022-11-18T15:46:22;11.60;78.50
66086;DHT22;52868;49.758;9.586;2022-11-18T15:48:53;11.60;78.50
66086;DHT22;52868;49.758;9.586;2022-11-18T15:51:19;11.50;78.50
66086;DHT22;52868;49.758;9.586;2022-11-18T15:53:45;11.50;78.60
66086;DHT22;52868;49.758;9.586;2022-11-18T15:58:54;11.50;78.60
66086;DHT22;52868;49.758;9.586;2022-11-18T16:01:20;11.50;78.60
66086;DHT22;52868;49.758;9.586;2022-11-18T16:03:45;11.50;78.60
66086;DHT22;52868;49.758;9.586;2022-11-18T16:06:11;11.50;78.60
66086;DHT22;52868;49.758;9.586;2022-11-18T16:08:37;11.50;78.60
66086;DHT22;52868;49.758;9.586;2022-11-18T16:11:02;11.50;78.60
66086;DHT22;52868;49.758;9.586;2022-11-18T16:13:47;11.50;78.60
66086;DHT22;52868;49.758;9.586;2022-11-18T16:16:20;11.50;78.60
66086;DHT22;52868;49.758;9.586;2022-11-18T16:18:46;11.50;78.60
66086;DHT22;52868;49.758;9.586;2022-11-18T16:21:12;11.50;78.40
66086;DHT22;52868;49.758;9.586;2022-11-18T16:23:37;11.40;78.40
66086;DHT22;52868;49.758;9.586;2022-11-18T16:26:03;11.40;78.50
66086;DHT22;52868;49.758;9.586;2022-11-18T16:28:29;11.40;78.50
66086;DHT22;52868;49.758;9.586;2022-11-18T16:30:54;11.40;78.60
66086;DHT22;52868;49.758;9.586;2022-11-18T16:33:38;11.40;78.50
66086;DHT22;52868;49.758;9.586;2022-11-18T16:36:04;11.40;78.60
66086;DHT22;52868;49.758;9.586;2022-11-18T16:38:30;11.40;78.50
66086;DHT22;52868;49.758;9.586;2022-11-18T16:40:56;11.40;78.50
66086;DHT22;52868;49.758;9.586;2022-11-18T16:43:23;11.50;78.60
66086;DHT22;52868;49.758;9.586;2022-11-18T16:45:54;11.40;78.50
66086;DHT22;52868;49.758;9.586;2022-11-18T16:48:21;11.40;78.60
66086;DHT22;52868;49.758;9.586;2022-11-18T16:54:02;11.50;78.60
66086;DHT22;52868;49.758;9.586;2022-11-18T16:56:31;11.40;78.60
66086;DHT22;52868;49.758;9.586;2022-11-18T16:59:04;11.40;78.60
66086;DHT22;52868;49.758;9.586;2022-11-18T17:01:31;11.40;78.50
66086;DHT22;52868;49.758;9.586;2022-11-18T17:03:57;11.40;78.60
66086;DHT22;52868;49.758;9.586;2022-11-18T17:06:25;11.40;78.60
66086;DHT22;52868;49.758;9.586;2022-11-18T17:08:51;11.40;78.50
66086;DHT22;52868;49.758;9.586;2022-11-18T17:11:18;11.40;78.60
66086;DHT22;52868;49.758;9.586;2022-11-18T17:13:44;11.30;78.60
66086;DHT22;52868;49.758;9.586;2022-11-18T17:16:12;11.30;78.70
66086;DHT22;52868;49.758;9.586;2022-11-18T17:18:38;11.30;78.70
66086;DHT22;52868;49.758;9.586;2022-11-18T17:21:09;11.30;78.70
66086;DHT22;52868;49.758;9.586;2022-11-18T17:23:35;11.30;78.70
66086;DHT22;52868;49.758;9.586;2022-11-18T17:26:05;11.30;78.70
66086;DHT22;52868;49.758;9.586;2022-11-18T17:28:32;11.30;78.70
66086;DHT22;52868;49.758;9.586;2022-11-18T17:33:35;11.30;78.70
66086;DHT22;52868;49.758;9.586;2022-11-18T17:36:06;11.30;78.70